createdAt,value
2019-06-01T00:01:44.863Z,8.43
2019-06-01T00:04:15.715Z,8.30
2019-06-01T00:06:46.836Z,9.07
2019-06-01T00:09:18.624Z,9.17
2019-06-01T00:11:49.672Z,10.13
2019-06-01T00:14:20.688Z,10.97
2019-06-01T00:16:50.882Z,8.50
2019-06-01T00:19:22.040Z,7.77
2019-06-01T00:21:52.562Z,10.50
2019-06-01T00:24:22.571Z,10.47
2019-06-01T00:26:53.102Z,8.77
2019-06-01T00:29:23.634Z,10.33
2019-06-01T00:31:54.060Z,10.33
2019-06-01T00:34:24.485Z,10.10
2019-06-01T00:36:55.019Z,10.10
2019-06-01T00:39:25.242Z,10.70
2019-06-01T00:41:55.449Z,9.33
2019-06-01T00:44:25.690Z,9.17
2019-06-01T00:46:55.907Z,9.93
2019-06-01T00:49:25.711Z,9.63
2019-06-01T00:51:55.839Z,9.83
2019-06-01T00:54:27.377Z,10.00
2019-06-01T00:56:58.209Z,9.60
2019-06-01T00:59:28.650Z,10.03
2019-06-01T01:01:59.290Z,9.50
2019-06-01T01:04:29.610Z,9.97
2019-06-01T01:07:00.023Z,9.43
2019-06-01T01:09:30.239Z,8.60
2019-06-01T01:12:00.461Z,10.43
2019-06-01T01:14:31.411Z,9.03
2019-06-01T01:17:01.529Z,11.00
2019-06-01T01:19:31.329Z,10.73
2019-06-01T01:22:01.270Z,11.10
2019-06-01T01:24:31.891Z,10.70
2019-06-01T01:27:02.000Z,9.80
2019-06-01T01:29:32.422Z,11.23
2019-06-01T01:32:02.552Z,11.17
2019-06-01T01:34:32.556Z,10.47
2019-06-01T01:37:02.263Z,9.17
2019-06-01T01:39:32.485Z,8.97
2019-06-01T01:42:02.611Z,10.57
2019-06-01T01:44:32.723Z,12.73
2019-06-01T01:47:03.252Z,11.57
2019-06-01T01:49:33.580Z,12.70
2019-06-01T01:52:03.598Z,11.93
2019-06-01T01:54:34.017Z,13.47
2019-06-01T01:57:07.086Z,13.27
2019-06-01T01:59:35.996Z,13.83
2019-06-01T02:02:06.238Z,13.90
2019-06-01T02:04:36.547Z,13.17
2019-06-01T02:07:06.454Z,14.83
2019-06-01T02:09:37.108Z,12.13
2019-06-01T02:12:07.514Z,11.97
2019-06-01T02:14:38.169Z,13.37
2019-06-01T02:17:09.195Z,11.43
2019-06-01T02:19:39.617Z,19.77
2019-06-01T02:22:09.642Z,20.63
2019-06-01T02:24:40.053Z,18.93
2019-06-01T02:27:10.279Z,17.13
2019-06-01T02:29:40.502Z,17.83
2019-06-01T02:32:11.029Z,21.90
2019-06-01T02:34:41.258Z,19.17
2019-06-01T02:37:11.979Z,17.00
2019-06-01T02:39:41.903Z,16.37
2019-06-01T02:42:13.862Z,15.87
2019-06-01T02:44:43.872Z,14.30
2019-06-01T02:47:14.209Z,15.77
2019-06-01T02:49:44.911Z,13.60
2019-06-01T02:52:15.580Z,13.97
2019-06-01T02:54:46.297Z,15.00
2019-06-01T02:57:17.657Z,11.90
2019-06-01T02:59:48.269Z,14.83
2019-06-01T03:02:18.909Z,13.83
2019-06-01T03:04:49.648Z,14.47
2019-06-01T03:07:20.173Z,14.73
2019-06-01T03:09:50.485Z,12.87
2019-06-01T03:12:23.585Z,11.03
2019-06-01T03:14:55.537Z,13.53
2019-06-01T03:17:26.487Z,11.50
2019-06-01T03:19:58.037Z,12.60
2019-06-01T03:22:30.302Z,13.53
2019-06-01T03:25:02.087Z,14.27
2019-06-01T03:27:34.224Z,15.60
2019-06-01T03:30:08.560Z,13.10
2019-06-01T03:32:38.565Z,15.00
2019-06-01T03:35:09.300Z,11.57
2019-06-01T03:37:39.716Z,14.67
2019-06-01T03:40:20.352Z,14.17
2019-06-01T03:42:43.034Z,14.30
2019-06-01T03:45:14.179Z,15.03
2019-06-01T03:47:44.812Z,13.77
2019-06-01T03:50:15.749Z,14.20
2019-06-01T03:52:48.840Z,13.87
2019-06-01T03:55:20.481Z,14.70
2019-06-01T03:57:51.657Z,15.20
2019-06-01T04:00:23.611Z,16.00
2019-06-01T04:03:07.760Z,12.03
2019-06-01T04:05:44.424Z,14.77
2019-06-01T04:08:21.917Z,14.00
2019-06-01T04:13:36.901Z,14.60
2019-06-01T04:16:07.902Z,13.70
2019-06-01T04:18:38.764Z,13.50
2019-06-01T04:21:10.197Z,12.10
2019-06-01T04:23:40.655Z,15.90
2019-06-01T04:26:10.751Z,12.63
2019-06-01T04:28:40.872Z,11.40
2019-06-01T04:31:10.923Z,12.83
2019-06-01T04:33:40.801Z,12.83
2019-06-01T04:36:11.240Z,14.63
2019-06-01T04:38:42.478Z,16.60
2019-06-01T04:41:14.003Z,14.70
2019-06-01T04:43:44.673Z,16.87
2019-06-01T04:46:14.775Z,15.60
2019-06-01T04:48:45.121Z,15.67
2019-06-01T04:51:15.760Z,14.00
2019-06-01T04:53:45.754Z,15.00
2019-06-01T04:56:16.300Z,14.87
2019-06-01T04:58:47.238Z,17.80
2019-06-01T05:01:17.659Z,14.30
2019-06-01T05:03:48.293Z,14.87
2019-06-01T05:06:18.295Z,14.33
2019-06-01T05:08:48.743Z,16.07
2019-06-01T05:11:19.038Z,14.03
2019-06-01T05:13:50.998Z,14.70
2019-06-01T05:16:21.029Z,13.93
2019-06-01T05:18:51.249Z,14.10
2019-06-01T05:21:21.561Z,13.33
2019-06-01T05:23:51.607Z,14.00
2019-06-01T05:26:23.242Z,13.57
2019-06-01T05:28:54.584Z,16.87
2019-06-01T05:31:25.306Z,15.67
2019-06-01T05:33:55.649Z,14.07
2019-06-01T05:36:25.859Z,14.47
2019-06-01T05:38:55.979Z,14.57
2019-06-01T05:41:26.199Z,13.87
2019-06-01T05:43:56.631Z,15.20
2019-06-01T05:46:27.053Z,14.00
2019-06-01T05:48:58.213Z,14.03
2019-06-01T05:51:28.619Z,15.40
2019-06-01T05:54:04.590Z,16.50
2019-06-01T05:56:37.687Z,16.80
2019-06-01T05:59:09.900Z,16.23
2019-06-01T06:01:40.883Z,16.87
2019-06-01T06:04:13.783Z,17.00
2019-06-01T06:06:56.573Z,15.83
2019-06-01T06:09:28.897Z,18.57
2019-06-01T06:12:00.900Z,20.47
2019-06-01T06:14:33.187Z,18.23
2019-06-01T06:17:04.223Z,17.13
2019-06-01T06:19:35.775Z,16.40
2019-06-01T06:22:09.191Z,16.80
2019-06-01T06:24:41.661Z,8.90
2019-06-01T06:27:14.469Z,9.43
2019-06-01T06:29:47.328Z,12.83
2019-06-01T06:32:19.250Z,11.23
2019-06-01T06:34:51.051Z,11.97
2019-06-01T06:37:23.829Z,12.33
2019-06-01T06:39:54.561Z,9.90
2019-06-01T06:42:25.271Z,7.40
2019-06-01T06:44:56.726Z,7.87
2019-06-01T06:47:29.839Z,10.87
2019-06-01T06:50:05.770Z,8.90
2019-06-01T06:52:43.053Z,11.87
2019-06-01T06:55:21.976Z,11.80
2019-06-01T06:57:54.784Z,11.47
2019-06-01T07:00:27.003Z,12.70
2019-06-01T07:02:58.603Z,10.50
2019-06-01T07:05:31.447Z,11.20
2019-06-01T07:08:06.205Z,9.63
2019-06-01T07:10:38.270Z,8.17
2019-06-01T07:13:13.294Z,7.57
2019-06-01T07:15:43.729Z,8.97
2019-06-01T07:18:21.447Z,9.90
2019-06-01T07:21:02.419Z,11.70
2019-06-01T07:23:41.914Z,13.17
2019-06-01T07:26:13.293Z,8.90
2019-06-01T07:28:44.739Z,11.60
2019-06-01T07:31:18.220Z,13.47
2019-06-01T07:33:49.080Z,9.50
2019-06-01T07:36:20.237Z,8.00
2019-06-01T07:38:51.577Z,7.13
2019-06-01T07:41:26.810Z,3.30
2019-06-01T07:43:54.672Z,4.20
2019-06-01T07:46:26.842Z,5.37
2019-06-01T07:49:03.109Z,4.63
2019-06-01T07:51:34.745Z,4.23
2019-06-01T07:54:05.694Z,5.23
2019-06-01T07:56:36.720Z,6.37
2019-06-01T07:59:07.685Z,5.50
2019-06-01T08:01:38.611Z,5.33
2019-06-01T08:04:09.540Z,5.50
2019-06-01T08:06:45.795Z,4.50
2019-06-01T08:09:10.790Z,4.47
2019-06-01T08:11:42.041Z,3.60
2019-06-01T08:14:12.270Z,3.83
2019-06-01T08:16:45.244Z,4.33
2019-06-01T08:19:16.713Z,3.03
2019-06-01T08:21:47.127Z,3.40
2019-06-01T08:24:17.676Z,4.87
2019-06-01T08:26:48.285Z,4.27
2019-06-01T08:29:19.550Z,4.10
2019-06-01T08:31:55.505Z,4.40
2019-06-01T08:34:22.834Z,3.37
2019-06-01T08:36:54.287Z,3.10
2019-06-01T08:39:27.474Z,4.13
2019-06-01T08:41:58.212Z,4.27
2019-06-01T08:44:36.819Z,4.00
2019-06-01T08:47:07.985Z,2.97
2019-06-01T08:49:38.310Z,4.50
2019-06-01T08:52:08.751Z,4.40
2019-06-01T08:54:40.610Z,4.57
2019-06-01T08:57:11.654Z,3.20
2019-06-01T08:59:44.810Z,4.30
2019-06-01T09:02:16.691Z,4.10
2019-06-01T09:04:48.026Z,4.00
2019-06-01T09:07:18.620Z,3.67
2019-06-01T09:09:49.290Z,4.07
2019-06-01T09:12:19.814Z,4.23
2019-06-01T09:14:50.051Z,4.10
2019-06-01T09:17:20.149Z,4.50
2019-06-01T09:19:50.269Z,4.10
2019-06-01T09:22:20.601Z,4.03
2019-06-01T09:24:53.307Z,4.07
2019-06-01T09:27:22.055Z,3.47
2019-06-01T09:29:52.489Z,4.50
2019-06-01T09:32:22.640Z,4.07
2019-06-01T09:34:52.430Z,4.97
2019-06-01T09:37:22.651Z,4.73
2019-06-01T09:39:52.672Z,4.67
2019-06-01T09:42:22.691Z,4.70
2019-06-01T09:44:53.910Z,3.10
2019-06-01T09:47:23.911Z,3.40
2019-06-01T09:49:53.650Z,4.47
2019-06-01T09:52:23.554Z,3.93
2019-06-01T09:54:54.610Z,3.93
2019-06-01T09:57:25.130Z,3.80
2019-06-01T09:59:55.570Z,3.80
2019-06-01T10:02:25.464Z,3.00
2019-06-01T10:04:55.710Z,3.97
2019-06-01T10:07:25.911Z,4.13
2019-06-01T10:09:56.022Z,3.37
2019-06-01T10:12:26.370Z,3.70
2019-06-01T10:14:58.630Z,3.43
2019-06-01T10:17:28.450Z,3.33
2019-06-01T10:19:59.791Z,4.23
2019-06-01T10:22:30.900Z,3.77
2019-06-01T10:25:01.141Z,3.43
2019-06-01T10:27:32.451Z,4.30
2019-06-01T10:30:03.251Z,3.73
2019-06-01T10:32:35.646Z,5.53
2019-06-01T10:35:18.315Z,3.70
2019-06-01T10:37:48.426Z,4.00
2019-06-01T10:40:18.443Z,4.13
2019-06-01T10:42:48.257Z,3.50
2019-06-01T10:45:18.277Z,3.83
2019-06-01T10:47:48.614Z,5.27
2019-06-01T10:50:19.157Z,3.90
2019-06-01T10:52:50.306Z,3.90
2019-06-01T10:55:28.710Z,3.47
2019-06-01T10:57:59.630Z,4.07
2019-06-01T11:00:39.845Z,3.63
2019-06-01T11:03:01.504Z,4.20
2019-06-01T11:05:32.502Z,4.43
2019-06-01T11:08:03.090Z,4.30
2019-06-01T11:10:36.863Z,4.60
2019-06-01T11:13:07.294Z,4.95
2019-06-01T11:15:41.275Z,4.93
2019-06-01T11:18:19.409Z,5.87
2019-06-01T11:20:49.838Z,6.40
2019-06-01T11:23:19.949Z,6.03
2019-06-01T11:25:50.290Z,6.93
2019-06-01T11:28:20.506Z,6.47
2019-06-01T11:30:54.230Z,6.33
2019-06-01T11:33:25.669Z,6.90
2019-06-01T11:35:56.210Z,5.90
2019-06-01T11:38:26.613Z,6.00
2019-06-01T11:40:56.752Z,6.17
2019-06-01T11:43:28.489Z,6.10
2019-06-01T11:45:58.895Z,5.57
2019-06-01T11:48:28.846Z,5.47
2019-06-01T11:50:58.844Z,4.97
2019-06-01T11:53:28.546Z,4.47
2019-06-01T11:55:58.264Z,5.67
2019-06-01T11:58:28.177Z,7.60
2019-06-01T12:00:58.294Z,5.37
2019-06-01T12:03:28.108Z,4.13
2019-06-01T12:05:57.920Z,3.77
2019-06-01T12:08:28.248Z,4.40
2019-06-01T12:10:58.156Z,5.03
2019-06-01T12:13:28.582Z,4.00
2019-06-01T12:15:58.393Z,4.07
2019-06-01T12:18:28.305Z,4.37
2019-06-01T12:20:58.532Z,3.40
2019-06-01T12:23:29.172Z,3.87
2019-06-01T12:25:59.611Z,3.20
2019-06-01T12:28:29.286Z,3.10
2019-06-01T12:31:01.978Z,3.27
2019-06-01T12:33:32.809Z,3.17
2019-06-01T12:36:05.182Z,4.17
2019-06-01T12:38:52.608Z,3.33
2019-06-01T12:41:43.495Z,4.10
2019-06-01T12:44:15.475Z,3.97
2019-06-01T12:46:45.300Z,2.93
2019-06-01T12:49:15.507Z,3.50
2019-06-01T12:51:46.929Z,3.67
2019-06-01T12:54:17.596Z,3.17
2019-06-01T12:56:49.731Z,3.67
2019-06-01T12:59:19.464Z,3.00
2019-06-01T13:01:49.481Z,3.50
2019-06-01T13:04:20.009Z,2.83
2019-06-01T13:06:52.312Z,2.93
2019-06-01T13:09:21.678Z,3.23
2019-06-01T13:11:51.558Z,3.57
2019-06-01T13:14:25.530Z,2.60
2019-06-01T13:17:06.301Z,3.10
2019-06-01T13:19:27.481Z,2.70
2019-06-01T13:21:57.496Z,2.93
2019-06-01T13:24:27.651Z,3.70
2019-06-01T13:26:58.248Z,3.47
2019-06-01T13:29:28.266Z,2.97
2019-06-01T13:31:58.082Z,2.83
2019-06-01T13:34:27.987Z,4.10
2019-06-01T13:37:00.877Z,2.80
2019-06-01T13:39:30.794Z,3.20
2019-06-01T13:42:02.241Z,3.27
2019-06-01T13:44:32.688Z,2.80
2019-06-01T13:47:04.633Z,2.70
2019-06-01T13:53:00.682Z,2.70
2019-06-01T13:55:32.743Z,3.10
2019-06-01T13:58:04.633Z,3.13
2019-06-01T14:00:36.362Z,2.67
2019-06-01T14:03:07.197Z,3.30
2019-06-01T14:05:38.127Z,3.00
2019-06-01T14:08:08.672Z,3.30
2019-06-01T14:10:39.186Z,3.40
2019-06-01T14:13:10.226Z,3.60
2019-06-01T14:15:40.548Z,3.20
2019-06-01T14:18:11.282Z,3.20
2019-06-01T14:20:41.910Z,3.03
2019-06-01T14:23:12.771Z,2.97
2019-06-01T14:25:43.585Z,3.43
2019-06-01T14:28:13.614Z,3.20
2019-06-01T14:30:43.815Z,2.87
2019-06-01T14:33:14.239Z,2.90
2019-06-01T14:35:44.673Z,3.07
2019-06-01T14:38:15.201Z,3.37
2019-06-01T14:40:46.984Z,3.53
2019-06-01T14:43:17.593Z,3.20
2019-06-01T14:45:47.467Z,3.43
2019-06-01T14:48:17.534Z,3.30
2019-06-01T14:50:47.514Z,3.40
2019-06-01T14:53:18.185Z,3.93
2019-06-01T14:55:49.609Z,4.00
2019-06-01T14:58:20.047Z,3.57
2019-06-01T15:00:50.578Z,3.70
2019-06-01T15:03:20.695Z,3.80
2019-06-01T15:05:50.606Z,4.90
2019-06-01T15:08:20.216Z,5.00
2019-06-01T15:10:50.661Z,4.30
2019-06-01T15:13:20.964Z,4.43
2019-06-01T15:15:51.497Z,4.60
2019-06-01T15:18:21.304Z,4.07
2019-06-01T15:20:51.701Z,4.63
2019-06-01T15:23:21.647Z,3.60
2019-06-01T15:25:54.288Z,3.70
2019-06-01T15:28:25.178Z,4.00
2019-06-01T15:30:55.271Z,4.77
2019-06-01T15:33:29.591Z,3.60
2019-06-01T15:36:00.130Z,4.00
2019-06-01T15:38:31.177Z,4.47
2019-06-01T15:41:02.625Z,3.60
2019-06-01T15:43:33.265Z,3.10
2019-06-01T15:46:03.162Z,3.30
2019-06-01T15:48:32.866Z,3.40
2019-06-01T15:51:07.044Z,3.30
2019-06-01T15:53:34.544Z,3.97
2019-06-01T15:56:04.249Z,3.67
2019-06-01T15:58:34.394Z,3.40
2019-06-01T16:01:04.491Z,3.17
2019-06-01T16:03:34.694Z,3.67
2019-06-01T16:06:04.623Z,3.50
2019-06-01T16:08:34.861Z,3.30
2019-06-01T16:11:06.536Z,3.03
2019-06-01T16:13:37.139Z,3.23
2019-06-01T16:16:07.146Z,2.97
2019-06-01T16:18:37.078Z,2.80
2019-06-01T16:21:07.199Z,3.23
2019-06-01T16:23:49.338Z,3.40
2019-06-01T16:26:16.137Z,3.97
2019-06-01T16:28:42.059Z,3.60
2019-06-01T16:31:13.388Z,4.77
2019-06-01T16:33:43.923Z,4.47
2019-06-01T16:36:14.448Z,4.90
2019-06-01T16:38:44.464Z,4.30
2019-06-01T16:41:14.486Z,3.57
2019-06-01T16:43:44.550Z,3.23
2019-06-01T16:46:14.641Z,3.30
2019-06-01T16:48:44.639Z,3.53
2019-06-01T16:51:14.759Z,3.87
2019-06-01T16:53:45.384Z,4.40
2019-06-01T16:56:15.406Z,3.60
2019-06-01T16:58:45.417Z,5.20
2019-06-01T17:01:15.765Z,4.40
2019-06-01T17:03:46.065Z,4.00
2019-06-01T17:06:16.183Z,4.40
2019-06-01T17:08:48.247Z,4.07
2019-06-01T17:11:18.467Z,4.63
2019-06-01T17:13:48.279Z,3.93
2019-06-01T17:16:18.503Z,4.40
2019-06-01T17:18:49.033Z,3.30
2019-06-01T17:21:19.178Z,3.73
2019-06-01T17:23:50.200Z,3.73
2019-06-01T17:26:20.715Z,3.40
2019-06-01T17:28:50.528Z,3.50
2019-06-01T17:31:20.339Z,4.20
2019-06-01T17:33:50.464Z,5.03
2019-06-01T17:36:20.599Z,3.60
2019-06-01T17:38:50.598Z,3.63
2019-06-01T17:41:20.621Z,3.37
2019-06-01T17:43:50.527Z,6.03
2019-06-01T17:46:21.057Z,5.30
2019-06-01T17:48:50.987Z,4.67
2019-06-01T17:51:21.084Z,4.77
2019-06-01T17:53:53.274Z,5.17
2019-06-01T17:56:22.247Z,5.40
2019-06-01T17:58:52.378Z,6.07
2019-06-01T18:01:22.299Z,4.97
2019-06-01T18:03:52.319Z,4.00
2019-06-01T18:06:22.539Z,4.37
2019-06-01T18:08:52.123Z,4.50
2019-06-01T18:11:22.242Z,4.10
2019-06-01T18:13:52.465Z,4.03
2019-06-01T18:16:22.072Z,4.30
2019-06-01T18:18:52.291Z,3.80
2019-06-01T18:21:22.632Z,4.30
2019-06-01T18:23:52.936Z,3.90
2019-06-01T18:26:24.297Z,4.10
2019-06-01T18:28:54.819Z,4.43
2019-06-01T18:31:26.577Z,5.77
2019-06-01T18:33:57.309Z,6.40
2019-06-01T18:36:28.349Z,8.33
2019-06-01T18:38:59.492Z,13.83
2019-06-01T18:41:29.718Z,12.03
2019-06-01T18:44:00.459Z,10.40
2019-06-01T18:46:30.259Z,11.20
2019-06-01T18:49:01.317Z,9.63
2019-06-01T18:51:32.150Z,7.90
2019-06-01T18:54:04.237Z,9.73
2019-06-01T18:56:36.371Z,9.07
2019-06-01T18:59:08.519Z,9.10
2019-06-01T19:01:40.599Z,9.53
2019-06-01T19:04:11.814Z,8.70
2019-06-01T19:06:43.599Z,11.20
2019-06-01T19:09:15.654Z,12.03
2019-06-01T19:11:46.616Z,10.37
2019-06-01T19:14:17.023Z,10.43
2019-06-01T19:16:47.248Z,11.80
2019-06-01T19:19:17.272Z,11.37
2019-06-01T19:21:47.281Z,10.57
2019-06-01T19:24:17.909Z,12.27
2019-06-01T19:26:48.442Z,9.27
2019-06-01T19:29:18.463Z,10.03
2019-06-01T19:31:49.599Z,10.60
2019-06-01T19:34:19.721Z,10.37
2019-06-01T19:36:51.592Z,9.43
2019-06-01T19:39:40.335Z,10.23
2019-06-01T19:42:11.223Z,10.47
2019-06-01T19:44:41.298Z,10.90
2019-06-01T19:47:11.851Z,10.73
2019-06-01T19:49:43.989Z,9.37
2019-06-01T19:52:13.282Z,9.43
2019-06-01T19:54:44.122Z,8.80
2019-06-01T19:57:18.343Z,9.70
2019-06-01T19:59:46.301Z,10.57
2019-06-01T20:02:28.526Z,18.77
2019-06-01T20:04:48.503Z,18.70
2019-06-01T20:07:19.277Z,18.00
2019-06-01T20:09:50.178Z,17.20
2019-06-01T20:12:20.494Z,16.10
2019-06-01T20:14:50.499Z,15.50
2019-06-01T20:17:24.583Z,17.27
2019-06-01T20:19:52.179Z,16.20
2019-06-01T20:22:21.975Z,21.13
2019-06-01T20:24:52.614Z,22.10
2019-06-01T20:27:26.525Z,21.33
2019-06-01T20:29:56.739Z,20.50
2019-06-01T20:32:26.555Z,22.43
2019-06-01T20:34:56.580Z,21.97
2019-06-01T20:37:26.492Z,62.40
2019-06-01T20:39:56.603Z,129.00
2019-06-01T20:42:32.551Z,101.20
2019-06-01T20:44:58.068Z,57.87
2019-06-01T20:47:28.699Z,52.83
2019-06-01T20:49:59.132Z,26.73
2019-06-01T20:52:29.958Z,61.97
2019-06-01T20:54:59.877Z,49.50
2019-06-01T20:57:29.793Z,34.23
2019-06-01T21:00:00.137Z,29.47
2019-06-01T21:02:30.459Z,21.17
2019-06-01T21:05:00.248Z,19.50
2019-06-01T21:07:30.275Z,17.60
2019-06-01T21:10:00.283Z,17.80
2019-06-01T21:12:44.051Z,18.50
2019-06-01T21:15:01.954Z,15.77
2019-06-01T21:17:31.869Z,17.57
2019-06-01T21:20:04.518Z,18.83
2019-06-01T21:22:33.028Z,24.70
2019-06-01T21:25:03.045Z,25.67
2019-06-01T21:27:33.572Z,20.20
2019-06-01T21:30:03.597Z,20.47
2019-06-01T21:32:33.812Z,18.53
2019-06-01T21:35:04.236Z,16.70
2019-06-01T21:37:34.255Z,15.90
2019-06-01T21:40:04.474Z,15.17
2019-06-01T21:42:38.375Z,14.60
2019-06-01T21:45:07.887Z,12.97
2019-06-01T21:47:37.805Z,13.07
2019-06-01T21:50:08.022Z,13.90
2019-06-01T21:52:37.919Z,14.53
2019-06-01T21:55:08.464Z,13.17
2019-06-01T21:57:38.478Z,14.40
2019-06-01T22:00:09.827Z,13.83
2019-06-01T22:02:39.847Z,14.23
2019-06-01T22:05:10.067Z,16.33
2019-06-01T22:07:39.892Z,18.00
2019-06-01T22:10:09.793Z,17.37
2019-06-01T22:12:40.016Z,15.83
2019-06-01T22:15:10.232Z,15.70
2019-06-01T22:17:40.463Z,15.53
2019-06-01T22:20:10.882Z,13.90
2019-06-01T22:22:40.597Z,16.10
2019-06-01T22:25:12.041Z,17.37
2019-06-01T22:27:41.949Z,14.40
2019-06-01T22:30:12.279Z,13.13
2019-06-01T22:32:42.404Z,15.30
2019-06-01T22:35:12.417Z,13.87
2019-06-01T22:37:42.435Z,12.23
2019-06-01T22:40:12.356Z,13.03
2019-06-01T22:42:42.251Z,12.73
2019-06-01T22:45:13.097Z,12.57
2019-06-01T22:47:42.695Z,14.13
2019-06-01T22:50:13.027Z,16.03
2019-06-01T22:52:43.062Z,16.53
2019-06-01T22:55:13.901Z,15.17
2019-06-01T22:57:44.000Z,14.20
2019-06-01T23:00:14.016Z,13.97
2019-06-01T23:02:44.235Z,13.93
2019-06-01T23:05:14.455Z,16.20
2019-06-01T23:07:45.288Z,15.93
2019-06-01T23:10:15.103Z,18.00
2019-06-01T23:12:45.018Z,22.47
2019-06-01T23:15:15.035Z,19.30
2019-06-01T23:17:46.486Z,19.57
2019-06-01T23:20:16.606Z,21.53
2019-06-01T23:22:47.909Z,20.77
2019-06-01T23:25:19.114Z,19.17
2019-06-01T23:27:49.839Z,16.33
2019-06-01T23:30:21.919Z,21.47
2019-06-01T23:32:52.941Z,20.83
2019-06-01T23:35:24.376Z,20.43
2019-06-01T23:37:55.019Z,18.53
2019-06-01T23:40:26.572Z,18.33
2019-06-01T23:42:57.412Z,18.17
2019-06-01T23:45:28.810Z,17.83
2019-06-01T23:48:01.126Z,17.87
2019-06-01T23:50:34.891Z,19.13
2019-06-01T23:53:13.743Z,18.40
2019-06-01T23:55:39.890Z,19.03
2019-06-01T23:58:12.795Z,17.67
